Nottingham, United Kingdom
Current Conditions -  °F | °C
As of 8:50 PM on Friday 19 Dec 2014 (Local Time) from EGNX Reporting Station
Clear Clear  
Wind Chill: 32°   Ceiling: Unl
Heat Index: 43°   Visibility: 6mi
Dew Point: 37°   Wind: 30mph
Humidity: 81%   Direction: 250°WSW
Pressure: 30.03"   Gusts: NA
Location:  52.96°N, 1.15°W
Report Text: EGNX 192050Z 25026KT CAVOK 06/03 Q1017
Loading
Personal Weather Stations






























Interactive Weather Map New forecast layout! Learn more

10-Day Weather Forecast

Advertisements
Track Severe Weather on mobile